Time;durP1;ratioP1;P1;durP2;ratioP2;P2;SDS_P1;SDS_P2;PMS_P1;PMS_P2;Temp;Humidity;BMP_temperature;BMP_pressure;BME280_temperature;BME280_humidity;BME280_pressure;Samples;Min_cycle;Max_cycle;Signal;HPM_P1;HPM_P2
2023/07/20 00:00:59;;;;;;;4.72;2.75;;;;;;;23.55;62.44;94573.38;6138997;23;20168;-64
2023/07/20 00:03:26;;;;;;;5.13;2.20;;;;;;;23.52;62.15;94570.66;6128858;23;20175;-64
2023/07/20 00:05:53;;;;;;;4.93;2.78;;;;;;;23.54;60.09;94556.94;6128256;23;20199;-64
2023/07/20 00:08:21;;;;;;;4.55;2.70;;;;;;;23.56;61.91;94543.19;6128044;23;20179;-63
2023/07/20 00:10:48;;;;;;;4.55;2.60;;;;;;;23.54;62.05;94543.66;6127909;23;20180;-64
2023/07/20 00:13:18;;;;;;;5.95;2.80;;;;;;;23.54;62.85;94562.56;6127729;23;20178;-63
2023/07/20 00:15:45;;;;;;;4.43;2.80;;;;;;;23.58;63.61;94568.09;6128854;23;20160;-64
2023/07/20 00:18:12;;;;;;;4.80;2.90;;;;;;;23.55;64.15;94572.59;6127649;23;20172;-64
2023/07/20 00:20:39;;;;;;;5.03;3.38;;;;;;;23.53;63.00;94583.53;6128477;23;20168;-64
2023/07/20 00:23:05;;;;;;;7.22;3.28;;;;;;;23.57;61.90;94575.75;6138346;23;20168;-64
2023/07/20 00:25:34;;;;;;;5.65;3.08;;;;;;;23.54;61.72;94576.66;6128393;23;20516;-64
2023/07/20 00:28:01;;;;;;;6.15;2.95;;;;;;;23.57;61.60;94574.94;6128651;23;20176;-64
2023/07/20 00:30:27;;;;;;;4.65;2.60;;;;;;;23.55;61.17;94573.38;6127871;23;20172;-64
2023/07/20 00:32:54;;;;;;;7.10;3.10;;;;;;;23.57;61.00;94587.00;6128968;23;20164;-64
2023/07/20 00:35:21;;;;;;;5.20;2.80;;;;;;;23.57;60.85;94595.44;6127248;23;20204;-64
2023/07/20 00:37:48;;;;;;;5.45;2.97;;;;;;;23.50;61.15;94592.84;6128334;23;20523;-64
2023/07/20 00:40:14;;;;;;;3.22;2.60;;;;;;;23.47;59.32;94591.72;6128784;23;20168;-64
2023/07/20 00:42:42;;;;;;;5.03;2.85;;;;;;;23.47;58.64;94590.94;6127728;23;20178;-64
2023/07/20 00:45:10;;;;;;;3.95;2.83;;;;;;;23.51;59.33;94586.75;6127761;23;20168;-63
2023/07/20 00:47:37;;;;;;;3.63;2.30;;;;;;;23.53;59.40;94575.84;6128148;23;20180;-64
2023/07/20 00:50:05;;;;;;;4.50;2.40;;;;;;;23.52;59.37;94570.66;6128256;23;20623;-63
2023/07/20 00:52:32;;;;;;;4.93;3.42;;;;;;;23.51;60.73;94572.69;6127532;23;20218;-63
2023/07/20 00:54:59;;;;;;;5.95;2.83;;;;;;;23.55;60.67;94569.78;6128728;23;20160;-63
2023/07/20 00:57:26;;;;;;;4.00;2.47;;;;;;;23.55;60.56;94569.78;6127405;23;20183;-63
2023/07/20 00:59:54;;;;;;;4.72;2.50;;;;;;;23.49;60.28;94555.47;6127579;23;20168;-63
2023/07/20 01:02:21;;;;;;;5.13;3.00;;;;;;;23.51;59.35;94558.63;6138541;23;20178;-63
2023/07/20 01:04:48;;;;;;;4.72;2.70;;;;;;;23.50;60.41;94556.28;6127669;23;20175;-63
2023/07/20 01:07:38;;;;;;;3.72;2.35;;;;;;;23.48;61.15;94562.31;6126965;23;20199;-63
2023/07/20 01:10:42;;;;;;;5.90;2.95;;;;;;;23.50;60.78;94571.13;6044394;23;20185;-63
2023/07/20 01:13:46;;;;;;;3.80;2.88;;;;;;;23.35;61.17;94569.19;6068462;23;20181;-63
2023/07/20 01:16:52;;;;;;;4.82;2.90;;;;;;;23.23;61.29;94562.28;6068563;23;20173;-63
2023/07/20 01:19:56;;;;;;;7.18;3.15;;;;;;;23.24;61.67;94566.69;6044238;23;20173;-63
2023/07/20 01:22:59;;;;;;;5.03;2.85;;;;;;;23.20;61.52;94552.75;6068311;23;20184;-63
2023/07/20 01:26:03;;;;;;;5.00;2.78;;;;;;;23.16;62.07;94560.47;6068082;23;20456;-63
2023/07/20 01:29:07;;;;;;;4.57;3.00;;;;;;;23.21;62.75;94565.56;6068310;23;20176;-63
2023/07/20 01:32:11;;;;;;;5.07;2.65;;;;;;;23.19;62.96;94573.66;6068706;23;20487;-63
2023/07/20 01:35:15;;;;;;;3.80;3.00;;;;;;;23.18;63.60;94579.75;6097733;23;20484;-63
2023/07/20 01:38:19;;;;;;;7.47;3.53;;;;;;;23.11;62.46;94579.94;6100924;23;20168;-63
2023/07/20 01:41:23;;;;;;;4.40;2.97;;;;;;;23.05;62.94;94574.84;6100581;23;20465;-64
2023/07/20 01:44:27;;;;;;;3.60;2.95;;;;;;;23.07;63.41;94566.00;6100940;23;20160;-64
2023/07/20 01:47:31;;;;;;;4.85;2.63;;;;;;;22.95;62.31;94561.09;6075759;23;20196;-64
2023/07/20 01:50:35;;;;;;;3.40;2.63;;;;;;;22.87;62.50;94565.31;6076069;23;20175;-64
2023/07/20 01:53:40;;;;;;;7.10;2.80;;;;;;;22.89;62.35;94565.69;6100816;23;20172;-64
2023/07/20 01:56:44;;;;;;;3.97;2.25;;;;;;;22.84;62.87;94567.03;6100404;23;20156;-64
2023/07/20 01:59:48;;;;;;;3.78;2.78;;;;;;;22.80;63.44;94566.31;6100786;23;20171;-63
2023/07/20 02:02:51;;;;;;;7.32;2.55;;;;;;;22.66;64.46;94566.72;6100742;23;20187;-64
2023/07/20 02:05:56;;;;;;;4.15;2.90;;;;;;;22.60;64.68;94560.84;6075414;23;20179;-63
2023/07/20 02:09:00;;;;;;;5.57;2.70;;;;;;;22.62;64.91;94560.41;6100892;23;20231;-63
2023/07/20 02:11:28;;;;;;;6.30;2.88;;;;;;;22.60;65.04;94558.03;6075131;23;20183;-63
2023/07/20 02:13:55;;;;;;;5.00;2.75;;;;;;;22.57;65.28;94556.91;6075842;23;20224;-63
2023/07/20 02:16:22;;;;;;;5.63;3.00;;;;;;;22.59;65.00;94559.28;6075165;23;20169;-63
2023/07/20 02:18:49;;;;;;;4.38;3.15;;;;;;;22.57;64.15;94559.72;6110031;23;20472;-64
2023/07/20 02:21:15;;;;;;;6.43;3.80;;;;;;;22.59;64.72;94562.09;6075480;23;20176;-64
2023/07/20 02:23:42;;;;;;;6.22;4.03;;;;;;;22.62;65.04;94564.00;6075481;23;20173;-64
2023/07/20 02:26:09;;;;;;;5.60;3.40;;;;;;;22.64;64.88;94566.38;6100533;23;20180;-64
2023/07/20 02:28:37;;;;;;;5.22;3.67;;;;;;;22.62;64.76;94566.81;6100115;23;20173;-64
2023/07/20 02:31:04;;;;;;;6.82;3.72;;;;;;;22.58;64.50;94564.09;6100490;23;20171;-64
2023/07/20 02:33:30;;;;;;;5.50;2.85;;;;;;;22.56;64.54;94555.34;6075029;23;20172;-64
2023/07/20 02:35:57;;;;;;;5.38;3.17;;;;;;;22.56;64.63;94555.34;6116075;23;20207;-64
2023/07/20 02:38:24;;;;;;;4.35;3.20;;;;;;;22.52;64.16;94549.03;6128794;23;20186;-64
2023/07/20 02:40:51;;;;;;;5.10;2.90;;;;;;;22.45;65.04;94548.44;6139576;23;20238;-64
2023/07/20 02:43:18;;;;;;;4.97;3.22;;;;;;;22.40;64.82;94538.50;6129164;23;20194;-64
2023/07/20 02:45:46;;;;;;;6.65;3.28;;;;;;;22.32;65.72;94543.53;6139537;23;20172;-64
2023/07/20 02:48:14;;;;;;;5.03;2.92;;;;;;;22.28;66.06;94539.22;6128596;23;20188;-64
2023/07/20 02:50:41;;;;;;;6.95;3.38;;;;;;;22.30;65.59;94528.34;6128580;23;20172;-64
2023/07/20 02:53:08;;;;;;;5.50;3.42;;;;;;;22.32;65.59;94531.50;6139104;23;20172;-64
2023/07/20 02:55:35;;;;;;;6.28;3.50;;;;;;;22.29;66.24;94535.97;6128034;23;20179;-64
2023/07/20 02:58:01;;;;;;;7.15;3.20;;;;;;;22.31;66.81;94535.53;6129529;23;20168;-64
2023/07/20 03:00:28;;;;;;;5.88;3.17;;;;;;;22.28;67.27;94534.41;6128401;23;20183;-64
2023/07/20 03:02:56;;;;;;;5.68;3.25;;;;;;;22.20;67.22;94538.63;6129514;23;20171;-64
2023/07/20 03:05:25;;;;;;;5.63;3.30;;;;;;;22.18;67.98;94540.31;6129067;23;20565;-64
2023/07/20 03:07:51;;;;;;;6.05;3.50;;;;;;;22.19;68.03;94541.91;6128313;23;20219;-64
2023/07/20 03:10:18;;;;;;;8.55;3.38;;;;;;;22.17;67.91;94535.91;6128895;23;20176;-64
2023/07/20 03:12:45;;;;;;;7.75;3.58;;;;;;;22.17;67.57;94536.69;6129502;23;20157;-64
2023/07/20 03:15:12;;;;;;;8.45;3.75;;;;;;;22.16;67.78;94532.31;6129279;23;20234;-64
2023/07/20 03:17:39;;;;;;;6.70;3.65;;;;;;;22.14;67.41;94539.56;6128213;23;20172;-64
2023/07/20 03:20:10;;;;;;;5.68;3.15;;;;;;;22.13;67.28;94550.03;6129384;23;20285;-64
2023/07/20 03:22:37;;;;;;;8.18;3.80;;;;;;;22.15;66.92;94558.84;6128334;23;20214;-64
2023/07/20 03:25:05;;;;;;;4.68;3.72;;;;;;;22.15;66.64;94556.03;6138973;23;20156;-64
2023/07/20 03:27:32;;;;;;;8.13;4.10;;;;;;;22.13;66.75;94560.47;6128753;23;20675;-64
2023/07/20 03:29:59;;;;;;;6.47;3.70;;;;;;;22.12;67.02;94562.50;6128892;23;20171;-65
2023/07/20 03:32:29;;;;;;;9.75;4.15;;;;;;;22.13;66.99;94554.84;6129193;23;20235;-64
2023/07/20 03:34:55;;;;;;;8.18;3.97;;;;;;;22.13;66.71;94552.03;6127889;23;20183;-64
2023/07/20 03:37:24;;;;;;;7.45;3.95;;;;;;;22.11;67.06;94553.28;6129182;23;20223;-64
2023/07/20 03:39:50;;;;;;;7.70;4.25;;;;;;;22.12;67.73;94559.69;6127997;23;20235;-64
2023/07/20 03:42:17;;;;;;;7.25;4.15;;;;;;;22.07;68.26;94557.38;6128351;23;20168;-64
2023/07/20 03:44:44;;;;;;;7.95;4.57;;;;;;;21.99;68.52;94556.78;6138696;23;20156;-64
2023/07/20 03:47:11;;;;;;;8.25;4.38;;;;;;;21.97;68.53;94561.25;6128642;23;20526;-63
2023/07/20 03:49:37;;;;;;;6.75;5.32;;;;;;;21.94;68.34;94557.31;6127907;23;20175;-63
2023/07/20 03:52:05;;;;;;;6.95;4.72;;;;;;;21.92;68.85;94554.16;6128583;23;20180;-63
2023/07/20 03:54:33;;;;;;;8.93;4.70;;;;;;;21.87;68.72;94549.88;6128383;23;20176;-63
2023/07/20 03:57:00;;;;;;;9.27;4.40;;;;;;;21.87;68.92;94560.31;6127904;23;20178;-63
2023/07/20 03:59:27;;;;;;;10.63;4.30;;;;;;;21.89;68.91;94563.44;6129027;23;20207;-63
2023/07/20 04:01:54;;;;;;;7.65;3.92;;;;;;;21.90;68.69;94562.25;6128098;23;20179;-63
2023/07/20 04:04:20;;;;;;;8.77;3.97;;;;;;;21.91;69.11;94557.41;6138485;23;20156;-63
2023/07/20 04:06:47;;;;;;;6.55;3.97;;;;;;;21.93;69.81;94549.31;6128102;23;20282;-63
2023/07/20 04:09:14;;;;;;;10.43;4.78;;;;;;;21.92;69.00;94540.13;6127437;23;20518;-63
2023/07/20 04:11:42;;;;;;;7.90;4.70;;;;;;;21.94;69.23;94550.91;6128967;23;20168;-64
2023/07/20 04:14:09;;;;;;;8.85;4.82;;;;;;;21.99;69.15;94548.34;6128513;23;20176;-63
2023/07/20 04:16:35;;;;;;;8.50;4.53;;;;;;;22.03;68.71;94540.63;6138803;23;20218;-64
2023/07/20 04:19:02;;;;;;;10.65;4.63;;;;;;;22.02;68.31;94544.69;6127707;23;20180;-63
2023/07/20 04:21:29;;;;;;;7.07;4.43;;;;;;;22.02;67.83;94541.09;6127325;23;20168;-63
2023/07/20 04:23:56;;;;;;;10.45;5.05;;;;;;;22.02;67.71;94541.88;6138398;23;20246;-63
2023/07/20 04:26:22;;;;;;;10.68;4.45;;;;;;;;;;6129024;23;20159;-63
2023/07/20 04:28:52;;;;;;;9.68;5.22;;;;;;;22.09;68.21;94538.09;6128436;23;20180;-64
2023/07/20 04:31:19;;;;;;;8.23;5.07;;;;;;;22.08;67.94;94536.53;6127704;23;20185;-65
2023/07/20 04:33:46;;;;;;;8.05;4.90;;;;;;;22.10;67.60;94537.66;6129120;23;20160;-65
2023/07/20 04:36:14;;;;;;;7.43;4.88;;;;;;;22.14;67.49;94536.78;6128306;23;20203;-64
2023/07/20 04:38:42;;;;;;;9.80;4.38;;;;;;;22.16;67.21;94535.13;6128456;23;20188;-65
2023/07/20 04:41:27;;;;;;;6.43;4.15;;;;;;;22.20;67.09;94530.22;6127843;23;20202;-65
2023/07/20 04:43:55;;;;;;;7.97;4.28;;;;;;;22.23;66.55;94534.16;6128721;23;20171;-65
2023/07/20 04:46:22;;;;;;;7.15;4.25;;;;;;;22.26;66.49;94530.44;6128148;23;20171;-65
2023/07/20 04:48:48;;;;;;;5.45;4.18;;;;;;;22.28;66.21;94530.81;6128594;23;20179;-64
2023/07/20 04:51:17;;;;;;;8.82;4.95;;;;;;;22.32;66.76;94532.28;6138457;23;20223;-70
2023/07/20 04:53:44;;;;;;;5.22;4.20;;;;;;;22.36;66.10;94540.63;6128663;23;20175;-65
2023/07/20 04:56:11;;;;;;;8.80;4.82;;;;;;;22.42;67.08;94538.84;6127412;23;20502;-65
2023/07/20 04:58:37;;;;;;;9.38;4.50;;;;;;;22.46;66.33;94533.13;6128361;23;20462;-65
2023/07/20 05:01:06;;;;;;;9.25;4.65;;;;;;;22.51;66.84;94526.97;6138562;23;20176;-65
2023/07/20 05:03:33;;;;;;;7.38;4.30;;;;;;;22.53;67.53;94528.09;6127507;23;20226;-65
2023/07/20 05:05:59;;;;;;;8.02;4.28;;;;;;;22.57;66.21;94522.38;6128289;23;20167;-65
2023/07/20 05:08:27;;;;;;;10.15;4.10;;;;;;;22.55;64.71;94528.47;6129417;23;20195;-65
2023/07/20 05:10:53;;;;;;;6.22;4.25;;;;;;;22.54;65.65;94531.69;6129647;23;20171;-65
2023/07/20 05:13:20;;;;;;;6.68;4.20;;;;;;;22.54;64.77;94532.50;6140108;23;20172;-65
2023/07/20 05:15:47;;;;;;;5.53;3.78;;;;;;;22.58;64.57;94544.41;6129642;23;20176;-65
2023/07/20 05:18:19;;;;;;;6.60;4.25;;;;;;;22.64;64.69;94536.25;6129360;23;20184;-65
2023/07/20 05:20:47;;;;;;;5.93;4.53;;;;;;;22.73;65.85;94538.41;6130204;23;20160;-65
2023/07/20 05:23:14;;;;;;;5.78;4.20;;;;;;;22.82;64.54;94544.19;6129445;23;20174;-67
2023/07/20 05:25:41;;;;;;;7.47;3.85;;;;;;;22.86;63.60;94544.06;6130421;23;20557;-72
2023/07/20 05:28:07;;;;;;;6.05;3.47;;;;;;;22.83;63.36;94543.72;6130457;23;20197;-66
2023/07/20 05:30:34;;;;;;;8.00;3.67;;;;;;;22.89;63.39;94557.25;6129258;23;20183;-66
2023/07/20 05:33:01;;;;;;;7.55;3.58;;;;;;;22.94;64.39;94551.09;6129495;23;20258;-65
2023/07/20 05:35:29;;;;;;;6.95;3.90;;;;;;;22.97;63.37;94551.00;6128740;23;20211;-65
2023/07/20 05:37:56;;;;;;;5.65;3.60;;;;;;;22.97;62.84;94547.41;6130371;23;20168;-65
2023/07/20 05:40:23;;;;;;;7.25;3.53;;;;;;;23.00;63.16;94552.91;6129508;23;20168;-65
2023/07/20 05:42:51;;;;;;;6.55;4.07;;;;;;;23.02;63.95;94566.53;6129193;23;20183;-66
2023/07/20 05:45:18;;;;;;;5.38;3.72;;;;;;;23.09;64.47;94566.31;6129659;23;20179;-65
2023/07/20 05:47:45;;;;;;;9.48;3.88;;;;;;;23.16;63.09;94562.50;6130364;23;20216;-65
2023/07/20 05:50:12;;;;;;;5.28;4.20;;;;;;;23.19;63.03;94565.22;6130204;23;20164;-65
2023/07/20 05:52:42;;;;;;;8.50;3.72;;;;;;;23.21;63.73;94561.97;6139667;23;20186;-65
2023/07/20 05:55:09;;;;;;;9.18;3.80;;;;;;;23.21;62.28;94564.78;6130116;23;20176;-65
2023/07/20 05:57:39;;;;;;;5.35;3.63;;;;;;;23.21;61.77;94561.97;6130181;23;20167;-65
2023/07/20 06:00:08;;;;;;;6.28;3.47;;;;;;;23.18;61.26;94548.78;6140251;23;20180;-65
2023/07/20 06:02:35;;;;;;;9.52;3.95;;;;;;;23.19;60.85;94553.97;6128976;23;20179;-65
2023/07/20 06:05:02;;;;;;;5.82;3.80;;;;;;;23.18;61.87;94563.66;6128957;23;20498;-65
2023/07/20 06:07:29;;;;;;;6.70;4.30;;;;;;;23.19;61.54;94553.97;6128821;23;20187;-65
2023/07/20 06:09:58;;;;;;;5.85;3.55;;;;;;;23.27;61.58;94557.34;6130269;23;20223;-65
2023/07/20 06:12:24;;;;;;;5.63;3.47;;;;;;;23.32;61.58;94556.81;6139982;23;20167;-65
2023/07/20 06:14:51;;;;;;;7.53;4.05;;;;;;;23.38;60.98;94551.41;6139459;23;20164;-65
2023/07/20 06:17:18;;;;;;;7.70;4.40;;;;;;;23.39;60.97;94548.16;6128558;23;20191;-65
2023/07/20 06:19:45;;;;;;;7.18;3.95;;;;;;;23.40;61.19;94540.50;6129340;23;20459;-65
2023/07/20 06:22:12;;;;;;;4.80;3.35;;;;;;;23.41;60.96;94531.59;6139958;23;20164;-66
2023/07/20 06:24:39;;;;;;;7.55;3.90;;;;;;;23.47;60.77;94538.25;6128946;23;20180;-73
2023/07/20 06:27:08;;;;;;;8.57;3.78;;;;;;;23.49;60.17;94535.78;6139419;23;20167;-67
2023/07/20 06:29:34;;;;;;;8.80;4.22;;;;;;;23.49;60.27;94529.34;6128306;23;20577;-69
2023/07/20 06:32:01;;;;;;;9.95;4.43;;;;;;;23.51;60.46;94533.28;6129329;23;20175;-69
2023/07/20 06:34:29;;;;;;;9.98;4.28;;;;;;;23.57;60.15;94535.53;6136352;23;20168;-69
2023/07/20 06:36:56;;;;;;;5.97;3.70;;;;;;;23.62;60.01;94532.16;6128686;23;20207;-69
2023/07/20 06:39:22;;;;;;;6.00;4.07;;;;;;;23.64;60.53;94521.22;6139151;23;20168;-70
2023/07/20 06:41:49;;;;;;;8.18;4.50;;;;;;;23.65;59.99;94532.06;6128907;23;20171;-70
2023/07/20 06:44:17;;;;;;;5.95;3.95;;;;;;;23.69;59.52;94532.75;6129724;23;20176;-69
2023/07/20 06:46:44;;;;;;;6.28;3.88;;;;;;;23.70;59.68;94531.50;6129316;23;20160;-69
2023/07/20 06:49:25;;;;;;;8.45;4.10;;;;;;;23.71;61.05;94524.66;6129616;23;20184;-69
2023/07/20 06:51:52;;;;;;;10.40;3.97;;;;;;;23.76;61.73;94526.13;6129689;23;20159;-70
2023/07/20 06:54:18;;;;;;;5.43;3.65;;;;;;;23.77;60.95;94530.50;6139557;23;20179;-71
2023/07/20 06:56:45;;;;;;;6.13;3.72;;;;;;;23.83;61.52;94536.38;6128732;23;20176;-71
2023/07/20 06:59:12;;;;;;;7.47;4.32;;;;;;;23.85;61.56;94550.75;6139192;23;20159;-71
2023/07/20 07:01:40;;;;;;;6.10;3.38;;;;;;;23.83;60.44;94548.41;6104192;23;20172;-71
2023/07/20 07:04:07;;;;;;;7.07;4.22;;;;;;;23.98;61.03;94554.38;6129200;23;20168;-71
2023/07/20 07:06:34;;;;;;;5.38;4.03;;;;;;;24.06;60.74;94552.09;6127954;23;20631;-70
2023/07/20 07:09:01;;;;;;;7.50;4.22;;;;;;;24.03;60.81;94563.00;6129458;23;20211;-74
2023/07/20 07:11:28;;;;;;;5.55;3.88;;;;;;;23.98;61.46;94568.44;6128266;23;20171;-66
2023/07/20 07:13:54;;;;;;;7.15;3.88;;;;;;;23.93;60.76;94580.25;6128355;23;20235;-67
2023/07/20 07:16:21;;;;;;;5.70;3.85;;;;;;;23.93;60.40;94591.53;6129030;23;20176;-67
2023/07/20 07:18:51;;;;;;;7.10;4.00;;;;;;;23.94;60.77;94593.91;6129365;23;20219;-67
2023/07/20 07:21:18;;;;;;;5.93;4.07;;;;;;;23.96;59.99;94605.50;6129352;23;20239;-66
2023/07/20 07:23:45;;;;;;;6.78;4.00;;;;;;;23.99;60.05;94613.03;6129355;23;20168;-66
2023/07/20 07:26:12;;;;;;;7.40;4.25;;;;;;;24.05;60.73;94610.47;6128189;23;20176;-66
2023/07/20 07:28:39;;;;;;;8.10;3.92;;;;;;;24.22;60.54;94600.66;6128514;23;20196;-66
2023/07/20 07:31:06;;;;;;;7.13;3.97;;;;;;;24.38;60.46;94596.09;6128333;23;20172;-66
2023/07/20 07:33:33;;;;;;;4.95;3.67;;;;;;;24.47;60.15;94588.56;6129223;23;20179;-66
2023/07/20 07:36:01;;;;;;;5.93;3.90;;;;;;;24.49;60.26;94586.06;6129104;23;20214;-67
2023/07/20 07:38:28;;;;;;;5.57;3.90;;;;;;;24.49;60.41;94582.47;6128141;23;20219;-67
2023/07/20 07:40:55;;;;;;;6.53;3.90;;;;;;;24.47;60.12;94590.56;6129364;23;20180;-67
2023/07/20 07:43:21;;;;;;;5.10;3.63;;;;;;;24.60;59.85;94593.38;6138547;23;20217;-67
2023/07/20 07:45:48;;;;;;;7.63;3.53;;;;;;;24.71;59.70;94582.50;6128014;23;20183;-68
2023/07/20 07:48:15;;;;;;;6.93;4.28;;;;;;;24.80;58.86;94562.84;6128426;23;20190;-66
2023/07/20 07:50:41;;;;;;;5.78;4.07;;;;;;;24.84;58.97;94551.44;6127915;23;20176;-66
2023/07/20 07:53:10;;;;;;;8.77;4.32;;;;;;;24.76;59.02;94553.72;6129106;23;20160;-66
2023/07/20 07:55:37;;;;;;;6.43;3.83;;;;;;;24.84;58.96;94569.16;6127894;23;20206;-66
2023/07/20 07:58:03;;;;;;;6.43;4.18;;;;;;;24.91;58.83;94562.44;6129045;23;20188;-68
2023/07/20 08:00:30;;;;;;;8.32;4.60;;;;;;;24.95;58.50;94558.25;6127526;23;20168;-67
2023/07/20 08:02:57;;;;;;;6.80;4.10;;;;;;;24.97;58.84;94572.69;6128214;23;20167;-72
2023/07/20 08:05:23;;;;;;;7.03;4.30;;;;;;;25.06;59.72;94586.09;6127545;23;20235;-68
2023/07/20 08:07:52;;;;;;;6.18;3.88;;;;;;;25.13;59.13;94594.31;6138974;23;20182;-71
2023/07/20 08:10:20;;;;;;;7.82;4.10;;;;;;;25.21;58.58;94604.09;6129172;23;20156;-69
2023/07/20 08:12:47;;;;;;;10.10;4.53;;;;;;;25.25;59.54;94614.47;6127996;23;20234;-69
2023/07/20 08:15:14;;;;;;;6.00;4.13;;;;;;;25.22;59.52;94616.16;6127765;23;20172;-70
2023/07/20 08:17:43;;;;;;;10.38;4.30;;;;;;;25.23;58.43;94611.28;6127889;23;20222;-70
2023/07/20 08:20:12;;;;;;;8.52;3.50;;;;;;;25.19;56.39;94620.69;6128927;23;20174;-69
2023/07/20 08:22:39;;;;;;;7.15;3.90;;;;;;;25.10;55.70;94619.81;6138591;23;20267;-69
2023/07/20 08:25:06;;;;;;;6.32;3.58;;;;;;;24.99;54.42;94603.28;6128943;23;20160;-70
2023/07/20 08:27:34;;;;;;;8.18;3.53;;;;;;;24.89;53.08;94610.06;6128307;23;20242;-69
2023/07/20 08:30:02;;;;;;;6.43;3.45;;;;;;;24.84;54.35;94605.03;6128055;23;20188;-70
2023/07/20 08:32:29;;;;;;;6.40;3.35;;;;;;;24.88;56.08;94614.94;6138871;23;20234;-69
2023/07/20 08:34:55;;;;;;;6.30;3.20;;;;;;;24.97;55.10;94612.16;6127511;23;20180;-70
2023/07/20 08:37:26;;;;;;;4.97;2.90;;;;;;;25.06;55.33;94616.34;6127355;23;20179;-70
2023/07/20 08:39:53;;;;;;;6.22;3.13;;;;;;;25.14;55.14;94604.34;6127768;23;20258;-69
2023/07/20 08:42:19;;;;;;;5.55;3.35;;;;;;;25.23;54.58;94605.66;6129519;23;20280;-70
2023/07/20 08:44:49;;;;;;;5.45;3.20;;;;;;;25.26;53.90;94605.53;6140396;23;20167;-70
2023/07/20 08:47:17;;;;;;;6.28;3.60;;;;;;;25.28;52.29;94614.34;6129537;23;20226;-69
2023/07/20 08:49:44;;;;;;;7.30;3.28;;;;;;;25.29;53.09;94609.47;6130127;23;20196;-69
2023/07/20 08:52:11;;;;;;;7.40;3.30;;;;;;;25.35;52.04;94616.88;6129819;23;20236;-69
2023/07/20 08:54:38;;;;;;;5.28;3.38;;;;;;;25.38;51.27;94601.03;6130402;23;20206;-69
2023/07/20 08:57:07;;;;;;;4.97;3.60;;;;;;;25.42;52.81;94604.53;6129803;23;20203;-69
2023/07/20 08:59:35;;;;;;;7.47;4.15;;;;;;;25.44;51.60;94605.63;6140043;23;20250;-69
2023/07/20 09:02:04;;;;;;;4.38;3.40;;;;;;;25.48;52.72;94601.91;6129192;23;20239;-69
2023/07/20 09:04:30;;;;;;;4.97;3.30;;;;;;;25.61;52.23;94594.94;6138955;23;20213;-69
2023/07/20 09:06:58;;;;;;;6.13;3.08;;;;;;;25.64;51.29;94591.19;6130699;23;20214;-69
2023/07/20 09:09:25;;;;;;;5.22;3.85;;;;;;;25.64;50.56;94596.81;6130415;23;20184;-69
2023/07/20 09:11:51;;;;;;;4.55;2.67;;;;;;;25.72;51.80;94594.50;6129498;23;20505;-69
2023/07/20 09:14:18;;;;;;;6.22;3.20;;;;;;;25.83;51.09;94592.06;6130276;23;20512;-70
2023/07/20 09:16:49;;;;;;;5.50;3.05;;;;;;;25.93;50.10;94582.41;6129827;23;20239;-70
2023/07/20 09:19:17;;;;;;;7.97;3.00;;;;;;;25.99;49.47;94579.72;6140021;23;20153;-69
2023/07/20 09:21:46;;;;;;;6.88;3.33;;;;;;;26.09;49.48;94577.72;6130821;23;20160;-69
2023/07/20 09:24:13;;;;;;;8.00;3.65;;;;;;;26.20;49.23;94572.44;6129094;23;20471;-70
2023/07/20 09:26:42;;;;;;;8.60;3.70;;;;;;;26.32;49.77;94574.34;6130498;23;20227;-70
2023/07/20 09:29:09;;;;;;;6.40;3.10;;;;;;;26.44;49.64;94578.31;6130454;23;20195;-69
2023/07/20 09:31:36;;;;;;;4.43;3.13;;;;;;;26.56;48.79;94577.41;6130373;23;20243;-69
2023/07/20 09:34:03;;;;;;;5.45;2.50;;;;;;;26.66;49.17;94586.69;6129553;23;20204;-69
2023/07/20 09:36:34;;;;;;;5.30;3.08;;;;;;;26.74;48.70;94573.03;6128767;23;20259;-70
2023/07/20 09:39:01;;;;;;;4.57;3.25;;;;;;;26.87;49.05;94574.44;6130630;23;20219;-70
2023/07/20 09:41:28;;;;;;;6.35;3.55;;;;;;;26.98;48.05;94576.00;6139657;23;20167;-70
2023/07/20 09:43:55;;;;;;;6.35;3.25;;;;;;;27.03;47.77;94570.50;6139717;23;20477;-70
2023/07/20 09:46:22;;;;;;;7.03;3.25;;;;;;;27.15;46.63;94580.09;6129494;23;20188;-69
2023/07/20 09:48:53;;;;;;;5.97;3.38;;;;;;;27.20;46.10;94573.84;6129431;23;20215;-70
2023/07/20 09:51:20;;;;;;;6.32;3.22;;;;;;;27.32;45.07;94560.75;6130156;23;20164;-69
2023/07/20 09:53:50;;;;;;;4.90;3.20;;;;;;;27.39;43.18;94539.81;6128833;23;20444;-69
2023/07/20 09:56:18;;;;;;;7.82;3.45;;;;;;;27.25;43.36;94533.56;6130254;23;20168;-72
2023/07/20 09:58:46;;;;;;;5.38;3.25;;;;;;;27.10;43.69;94533.38;6130178;23;20164;-69
2023/07/20 10:01:16;;;;;;;5.47;3.15;;;;;;;26.99;44.38;94541.59;6129899;23;20222;-69
2023/07/20 10:03:45;;;;;;;3.88;2.67;;;;;;;26.89;44.78;94535.13;6128759;23;20179;-69
2023/07/20 10:06:14;;;;;;;4.43;3.03;;;;;;;26.82;46.00;94535.44;6129259;23;20183;-68
2023/07/20 10:09:18;;;;;;;4.18;2.70;;;;;;;26.76;44.50;94545.84;6129112;23;20199;-70
2023/07/20 10:12:22;;;;;;;4.40;2.83;;;;;;;26.72;44.71;94550.84;6130036;23;20160;-70
2023/07/20 10:15:26;;;;;;;6.13;3.17;;;;;;;26.69;43.47;94548.19;6129132;23;20179;-73
2023/07/20 10:18:30;;;;;;;4.35;2.45;;;;;;;26.63;43.12;94548.81;6129692;23;20457;-70
2023/07/20 10:21:34;;;;;;;4.97;3.05;;;;;;;26.60;43.22;94561.06;6130233;23;20238;-71
2023/07/20 10:24:38;;;;;;;3.22;2.47;;;;;;;26.61;44.79;94554.13;6129247;23;20227;-71
2023/07/20 10:27:43;;;;;;;4.32;2.70;;;;;;;26.66;45.03;94540.66;6129097;23;20176;-70
2023/07/20 10:30:47;;;;;;;4.13;2.80;;;;;;;26.70;45.42;94532.78;6128584;23;20205;-70
2023/07/20 10:33:52;;;;;;;4.85;2.42;;;;;;;26.72;44.87;94530.25;6127765;23;20184;-70
2023/07/20 10:36:56;;;;;;;4.82;2.92;;;;;;;26.71;44.46;94537.19;6128149;23;20643;-70
2023/07/20 10:40:00;;;;;;;4.05;2.72;;;;;;;26.69;43.83;94542.50;6129652;23;20171;-69
2023/07/20 10:43:04;;;;;;;5.78;3.15;;;;;;;26.63;43.08;94494.28;6129883;23;20549;-67
2023/07/20 10:46:08;;;;;;;5.75;2.30;;;;;;;26.60;42.19;94438.69;6129734;23;20184;-67
2023/07/20 10:49:12;;;;;;;3.65;2.60;;;;;;;26.56;43.24;94491.78;6129642;23;20230;-68
2023/07/20 10:52:16;;;;;;;6.05;3.38;;;;;;;26.54;44.19;94512.03;6139031;23;20195;-67
2023/07/20 10:55:21;;;;;;;4.90;2.40;;;;;;;26.55;44.05;94484.56;6129799;23;20171;-66
2023/07/20 10:58:28;;;;;;;4.45;2.85;;;;;;;26.62;46.04;94472.94;6129298;23;20175;-70
2023/07/20 11:01:32;;;;;;;4.30;2.83;;;;;;;26.61;45.61;94471.34;6139179;23;20588;-71
2023/07/20 11:04:36;;;;;;;4.70;3.20;;;;;;;26.69;46.91;94466.97;6129275;23;20222;-68
2023/07/20 11:07:40;;;;;;;3.88;2.97;;;;;;;26.90;46.66;94456.69;6129582;23;20172;-67
2023/07/20 11:10:18;;;;;;;4.50;2.90;;;;;;;27.09;46.23;94463.13;6128973;23;20199;-67
2023/07/20 11:13:18;;;;;;;4.95;3.08;;;;;;;27.26;48.27;94457.91;6129566;23;20206;-66
2023/07/20 11:15:49;;;;;;;5.32;3.03;;;;;;;27.42;48.19;94468.88;6128255;23;20171;-68
2023/07/20 11:18:16;;;;;;;5.28;2.88;;;;;;;27.63;48.89;94458.53;6129484;23;20164;-69
2023/07/20 11:20:42;;;;;;;5.88;3.20;;;;;;;27.68;47.01;94451.44;6128768;23;20168;-69
2023/07/20 11:23:10;;;;;;;5.03;3.60;;;;;;;27.70;47.78;94457.41;6129075;23;20640;-70
2023/07/20 11:25:41;;;;;;;5.85;3.17;;;;;;;27.75;47.02;94449.06;6129359;23;20215;-67
2023/07/20 11:28:10;;;;;;;4.22;2.80;;;;;;;27.86;48.44;94453.44;6128482;23;20183;-67
2023/07/20 11:30:37;;;;;;;5.78;3.00;;;;;;;27.97;47.38;94442.34;6129280;23;20188;-67
2023/07/20 11:33:04;;;;;;;6.70;3.17;;;;;;;28.00;46.06;94435.72;6129331;23;20160;-67
2023/07/20 11:35:31;;;;;;;6.40;3.28;;;;;;;28.09;46.37;94432.81;6129141;23;20286;-67
2023/07/20 11:37:58;;;;;;;5.93;3.30;;;;;;;28.23;46.26;94426.41;6129559;23;20164;-70
2023/07/20 11:40:25;;;;;;;7.28;3.80;;;;;;;28.37;45.71;94430.56;6129222;23;20160;-69
2023/07/20 11:42:54;;;;;;;5.32;3.35;;;;;;;28.48;46.97;94427.97;6129239;23;20176;-69
2023/07/20 11:45:21;;;;;;;4.47;3.33;;;;;;;28.65;45.45;94421.81;6129260;23;20215;-71
2023/07/20 11:47:47;;;;;;;4.82;3.50;;;;;;;28.78;46.31;94416.66;6128715;23;20180;-71
2023/07/20 11:50:15;;;;;;;5.70;3.60;;;;;;;28.89;46.00;94408.34;6129280;23;20179;-68
2023/07/20 11:52:42;;;;;;;6.72;3.70;;;;;;;29.02;46.05;94411.72;6129390;23;20171;-68
2023/07/20 11:55:09;;;;;;;5.50;3.60;;;;;;;29.20;45.37;94409.94;6128008;23;20235;-68
2023/07/20 11:57:38;;;;;;;4.70;3.58;;;;;;;29.25;44.92;94398.66;6127994;23;20183;-68
2023/07/20 12:00:11;;;;;;;5.88;3.80;;;;;;;29.26;44.01;94397.38;6128742;23;20270;-72